Terminal Aerodrome Forecast
Issued by NWS

Home | Current Version | Previous Version | Text Only | Print | Product List | Glossary On
Versions: 1 2 3 4 5 6 7 8 9 10 11 12
000
FTUS46 KPDT 291730
TAFYKM
TAF
KYKM 291730Z 2918/3018 26007KT P6SM SCT250
     FM291900 15004KT P6SM SCT150 BKN250
     FM300300 27005KT P6SM BKN120 BKN200
     FM301200 28005KT P6SM FEW120 FEW200=

USA.gov is the U.S. government's official web portal to all federal, state and local government web resources and services.